Time;durP1;ratioP1;P1;durP2;ratioP2;P2;SDS_P1;SDS_P2;PMS_P1;PMS_P2;Temp;Humidity;BMP_temperature;BMP_pressure;BME280_temperature;BME280_humidity;BME280_pressure;Samples;Min_cycle;Max_cycle;Signal;HPM_P1;HPM_P2
2021/12/19 00:02:05;;;;;;;24.70;7.23;;;;;3.90;97668.00;;;;8285420;28;20253;-71
2021/12/19 00:10:29;;;;;;;31.50;6.90;;;;;3.80;97663.00;;;;8311215;28;20227;-71
2021/12/19 00:14:33;;;;;;;27.77;7.53;;;;;3.80;97651.00;;;;8313470;28;20322;-72
2021/12/19 00:18:37;;;;;;;24.27;7.67;;;;;3.90;97648.00;;;;8305726;28;20334;-70
2021/12/19 00:22:40;;;;;;;24.70;8.13;;;;;3.90;97645.00;;;;8301353;28;20261;-71
2021/12/19 00:26:44;;;;;;;32.20;8.20;;;;;3.90;97640.00;;;;8293825;28;20226;-70
2021/12/19 00:30:47;;;;;;;24.40;7.17;;;;;3.90;97647.00;;;;8302478;28;20316;-71
2021/12/19 00:34:52;;;;;;;16.50;5.80;;;;;3.90;97647.00;;;;8303201;28;20268;-71
2021/12/19 00:38:55;;;;;;;19.13;5.20;;;;;3.90;97650.00;;;;8308536;28;20729;-70
2021/12/19 00:43:05;;;;;;;24.67;6.93;;;;;3.90;97649.00;;;;8310346;28;20263;-70
2021/12/19 00:47:08;;;;;;;16.13;5.67;;;;;4.00;97650.00;;;;8293373;28;20647;-69
2021/12/19 00:51:18;;;;;;;20.27;6.17;;;;;4.00;97631.00;;;;8295729;28;20267;-71
2021/12/19 00:55:24;;;;;;;18.63;5.00;;;;;4.00;97629.00;;;;8300068;28;20268;-71
2021/12/19 00:59:27;;;;;;;9.37;4.57;;;;;4.00;97616.00;;;;8306730;28;20332;-71
2021/12/19 01:03:30;;;;;;;16.33;4.77;;;;;4.00;97623.00;;;;8292788;28;20690;-70
2021/12/19 01:07:36;;;;;;;14.47;5.63;;;;;4.10;97624.00;;;;8313978;28;20638;-72
2021/12/19 01:11:39;;;;;;;12.63;5.03;;;;;4.10;97602.00;;;;8310679;28;20221;-70
2021/12/19 01:15:42;;;;;;;16.67;5.43;;;;;4.00;97621.00;;;;8309206;28;20332;-71
2021/12/19 01:19:46;;;;;;;15.90;5.80;;;;;4.00;97623.00;;;;8297898;28;20249;-70
2021/12/19 01:23:51;;;;;;;14.03;5.50;;;;;4.00;97621.00;;;;8301917;28;20331;-70
2021/12/19 01:27:54;;;;;;;16.57;5.80;;;;;4.10;97624.00;;;;8296067;28;20724;-72
2021/12/19 01:31:58;;;;;;;13.13;6.00;;;;;4.00;97621.00;;;;8289858;28;20236;-72
2021/12/19 01:36:01;;;;;;;16.30;5.63;;;;;4.00;97624.00;;;;8293145;28;20320;-71
2021/12/19 01:40:08;;;;;;;12.13;5.47;;;;;4.00;97622.00;;;;8301669;28;20323;-71
2021/12/19 01:44:11;;;;;;;12.57;4.87;;;;;4.10;97632.00;;;;8303610;28;20267;-70
2021/12/19 01:48:15;;;;;;;15.47;4.87;;;;;4.10;97617.00;;;;8308470;28;20261;-72
2021/12/19 01:52:19;;;;;;;11.63;4.40;;;;;4.00;97619.00;;;;8299940;28;20233;-71
2021/12/19 01:56:24;;;;;;;9.93;4.00;;;;;4.00;97626.00;;;;8300794;28;20260;-70
2021/12/19 02:00:31;;;;;;;10.83;4.43;;;;;4.00;97609.00;;;;8300616;28;20787;-70
2021/12/19 02:04:34;;;;;;;12.40;4.90;;;;;4.00;97610.00;;;;8285991;28;20585;-71
2021/12/19 02:08:38;;;;;;;17.80;5.53;;;;;4.00;97601.00;;;;8296178;28;20724;-71
2021/12/19 02:12:43;;;;;;;14.90;4.87;;;;;4.00;97603.00;;;;8310458;28;20694;-71
2021/12/19 02:16:47;;;;;;;17.57;4.97;;;;;4.00;97599.00;;;;8303886;28;20233;-70
2021/12/19 02:20:55;;;;;;;15.70;5.67;;;;;4.00;97586.00;;;;8300151;28;20308;-71
2021/12/19 02:24:58;;;;;;;18.73;4.80;;;;;4.00;97587.00;;;;8297778;28;20240;-71
2021/12/19 02:29:01;;;;;;;18.07;5.33;;;;;4.00;97578.00;;;;8302715;28;20252;-71
2021/12/19 02:33:09;;;;;;;12.20;4.77;;;;;4.10;97573.00;;;;8294770;28;20651;-70
2021/12/19 02:37:34;;;;;;;10.43;3.90;;;;;4.00;97575.00;;;;8293011;28;20279;-71
2021/12/19 02:50:18;;;;;;;11.40;4.43;;;;;4.10;97565.00;;;;8298461;28;20643;-71
2021/12/19 02:54:24;;;;;;;9.60;3.97;;;;;4.20;97556.00;;;;8288751;28;20224;-70
2021/12/19 02:58:28;;;;;;;13.13;4.33;;;;;4.20;97541.00;;;;8295479;28;20253;-70
2021/12/19 03:02:31;;;;;;;14.43;4.17;;;;;4.30;97541.00;;;;8332249;23;20265;-71
2021/12/19 03:06:34;;;;;;;14.13;4.10;;;;;4.30;97547.00;;;;8377043;28;20220;-69
2021/12/19 03:11:25;;;;;;;11.80;4.20;;;;;4.30;97542.00;;;;8381107;28;20224;-71
2021/12/19 03:19:46;;;;;;;10.53;3.83;;;;;4.40;97533.00;;;;8375684;28;20307;-69
2021/12/19 03:23:49;;;;;;;8.57;3.83;;;;;4.30;97516.00;;;;8380592;28;20318;-70
2021/12/19 03:27:54;;;;;;;9.53;3.97;;;;;4.30;97515.00;;;;8382760;28;20224;-69
2021/12/19 03:31:57;;;;;;;10.43;3.70;;;;;4.30;97514.00;;;;8381684;28;20980;-71
2021/12/19 03:36:00;;;;;;;8.67;3.97;;;;;4.30;97509.00;;;;8381787;28;20263;-71
2021/12/19 03:40:11;;;;;;;10.37;3.63;;;;;4.30;97498.00;;;;8380893;28;20957;-72
2021/12/19 03:44:15;;;;;;;14.17;3.87;;;;;4.30;97496.00;;;;8379252;28;21336;-72
2021/12/19 03:48:19;;;;;;;8.50;3.33;;;;;4.30;97497.00;;;;8379824;28;20316;-72
2021/12/19 03:52:23;;;;;;;9.90;3.50;;;;;4.30;97497.00;;;;8380756;28;20262;-72
2021/12/19 03:56:26;;;;;;;8.27;3.60;;;;;4.30;97490.00;;;;8381669;28;20250;-72
2021/12/19 04:00:31;;;;;;;8.17;3.50;;;;;4.30;97509.00;;;;8382418;28;20250;-71
2021/12/19 04:04:38;;;;;;;7.23;3.50;;;;;4.30;97501.00;;;;8377701;28;20322;-71
2021/12/19 04:08:41;;;;;;;7.17;3.17;;;;;4.30;97494.00;;;;8380414;28;20238;-71
2021/12/19 04:12:44;;;;;;;11.77;4.50;;;;;4.40;97484.00;;;;8369112;28;20250;-71
2021/12/19 04:16:49;;;;;;;40.30;5.90;;;;;4.30;97491.00;;;;8378575;28;20401;-70
2021/12/19 04:20:52;;;;;;;11.73;3.03;;;;;4.30;97469.00;;;;8365878;28;20760;-70
2021/12/19 04:24:55;;;;;;;18.57;3.93;;;;;4.30;97464.00;;;;8369387;28;20768;-74
2021/12/19 04:28:58;;;;;;;11.17;3.70;;;;;4.30;97464.00;;;;8360356;28;22099;-71
2021/12/19 04:33:07;;;;;;;8.17;3.27;;;;;4.30;97458.00;;;;8383201;28;20262;-74
2021/12/19 04:37:28;;;;;;;7.27;2.63;;;;;4.30;97455.00;;;;8382562;28;20581;-71
2021/12/19 04:54:47;;;;;;;8.50;3.20;;;;;4.30;97418.00;;;;8388823;28;20355;-70
2021/12/19 05:03:25;;;;;;;8.37;2.73;;;;;4.30;97437.00;;;;8386973;28;20231;-71
2021/12/19 05:16:12;;;;;;;3.77;1.90;;;;;4.10;97423.00;;;;8376514;28;20335;-72
2021/12/19 05:20:20;;;;;;;6.03;1.90;;;;;4.10;97420.00;;;;8372084;28;20322;-72
2021/12/19 05:28:54;;;;;;;4.10;2.30;;;;;4.10;97432.00;;;;8361130;28;20565;-72
2021/12/19 05:32:59;;;;;;;6.93;2.17;;;;;4.10;97430.00;;;;8386653;28;20665;-73
2021/12/19 05:45:46;;;;;;;5.03;2.50;;;;;4.10;97420.00;;;;8387102;28;20225;-77
2021/12/19 05:49:50;;;;;;;3.93;2.00;;;;;4.10;97432.00;;;;8386977;28;20231;-71
2021/12/19 05:53:53;;;;;;;5.03;2.20;;;;;4.00;97417.00;;;;8381018;28;20232;-70
2021/12/19 05:57:58;;;;;;;7.10;2.73;;;;;4.10;97408.00;;;;8378563;28;20279;-73
2021/12/19 06:02:01;;;;;;;5.93;2.53;;;;;4.20;97405.00;;;;8385775;28;20238;-70
2021/12/19 06:06:04;;;;;;;8.90;2.57;;;;;4.10;97412.00;;;;8371681;28;20258;-72
2021/12/19 06:10:08;;;;;;;6.97;2.47;;;;;4.20;97418.00;;;;8385727;28;20254;-70
2021/12/19 06:14:13;;;;;;;4.30;2.30;;;;;4.20;97415.00;;;;8385132;28;20238;-70
2021/12/19 06:18:16;;;;;;;3.37;2.30;;;;;4.10;97407.00;;;;8384420;28;20311;-72
2021/12/19 06:22:19;;;;;;;2.60;2.07;;;;;4.10;97406.00;;;;8383300;28;20223;-71
2021/12/19 06:26:22;;;;;;;5.30;2.30;;;;;4.00;97411.00;;;;8364842;28;20246;-70
2021/12/19 06:30:27;;;;;;;8.07;2.50;;;;;4.10;97402.00;;;;8385522;28;20321;-70
2021/12/19 06:34:30;;;;;;;4.23;2.50;;;;;4.10;97395.00;;;;8384377;28;20262;-72
2021/12/19 06:38:34;;;;;;;7.33;2.67;;;;;4.10;97390.00;;;;8384919;28;20267;-72
2021/12/19 06:42:37;;;;;;;4.13;2.70;;;;;4.10;97380.00;;;;8385238;28;20255;-70
2021/12/19 06:46:42;;;;;;;4.37;2.40;;;;;4.10;97383.00;;;;8385149;28;20266;-71
2021/12/19 06:50:45;;;;;;;5.37;2.40;;;;;4.10;97387.00;;;;8383636;28;20317;-73
2021/12/19 06:54:48;;;;;;;4.23;2.37;;;;;4.00;97386.00;;;;8370584;28;20302;-75
2021/12/19 06:58:51;;;;;;;5.03;2.37;;;;;4.00;97387.00;;;;8379302;28;20321;-71
2021/12/19 07:02:57;;;;;;;5.80;2.40;;;;;3.90;97370.00;;;;8374593;28;20764;-72
2021/12/19 07:07:00;;;;;;;4.87;2.23;;;;;3.90;97377.00;;;;8370259;28;20314;-73
2021/12/19 07:11:04;;;;;;;6.43;2.87;;;;;3.90;97384.00;;;;8371018;28;20568;-72
2021/12/19 07:15:08;;;;;;;9.50;2.67;;;;;3.90;97379.00;;;;8376513;28;20318;-73
2021/12/19 07:19:13;;;;;;;5.70;2.67;;;;;3.90;97365.00;;;;8379155;28;20756;-71
2021/12/19 07:23:21;;;;;;;6.53;2.80;;;;;3.90;97358.00;;;;8383974;28;20310;-71
2021/12/19 07:27:24;;;;;;;6.37;2.73;;;;;3.90;97359.00;;;;8365620;28;20251;-70
2021/12/19 07:31:29;;;;;;;2.60;2.03;;;;;3.90;97371.00;;;;8384226;28;20311;-72
2021/12/19 07:35:38;;;;;;;9.47;3.00;;;;;3.80;97368.00;;;;8384018;28;20318;-70
2021/12/19 07:39:53;;;;;;;8.87;3.30;;;;;3.80;97374.00;;;;8383086;28;20238;-70
2021/12/19 07:43:57;;;;;;;7.23;3.43;;;;;3.80;97380.00;;;;8380287;28;20715;-71
2021/12/19 07:48:01;;;;;;;9.10;3.30;;;;;3.80;97375.00;;;;8384304;28;20262;-70
2021/12/19 07:52:06;;;;;;;9.57;3.27;;;;;3.80;97370.00;;;;8375843;28;20238;-71
2021/12/19 07:56:09;;;;;;;4.93;2.17;;;;;3.80;97368.00;;;;8371073;28;20335;-72
2021/12/19 08:00:14;;;;;;;6.87;3.30;;;;;3.80;97357.00;;;;8364668;28;20370;-71
2021/12/19 08:04:17;;;;;;;10.13;3.53;;;;;3.80;97354.00;;;;8381838;28;20398;-70
2021/12/19 08:08:26;;;;;;;12.83;3.70;;;;;3.80;97359.00;;;;8378086;28;20314;-71
2021/12/19 08:12:29;;;;;;;15.40;4.37;;;;;3.80;97349.00;;;;8370199;28;20262;-71
2021/12/19 08:16:33;;;;;;;16.10;4.73;;;;;3.70;97349.00;;;;8375993;28;20331;-71
2021/12/19 08:20:36;;;;;;;7.47;3.00;;;;;3.70;97353.00;;;;8371987;28;20231;-72
2021/12/19 08:24:42;;;;;;;12.97;4.53;;;;;3.70;97327.00;;;;8377285;28;20729;-70
2021/12/19 08:28:45;;;;;;;14.53;4.70;;;;;3.80;97328.00;;;;8369988;28;20242;-72
2021/12/19 08:32:48;;;;;;;14.93;4.30;;;;;3.90;97321.00;;;;8380496;28;20239;-71
2021/12/19 08:36:54;;;;;;;23.70;4.87;;;;;3.80;97311.00;;;;8369493;28;20229;-70
2021/12/19 08:40:59;;;;;;;12.33;4.13;;;;;3.80;97321.00;;;;8383502;28;20262;-70
2021/12/19 08:45:02;;;;;;;9.47;3.30;;;;;3.80;97316.00;;;;8379152;28;20751;-72
2021/12/19 08:49:06;;;;;;;15.07;4.27;;;;;3.80;97309.00;;;;8379242;28;20288;-72
2021/12/19 08:53:10;;;;;;;8.07;3.23;;;;;3.80;97309.00;;;;8372508;28;20281;-75
2021/12/19 08:57:14;;;;;;;10.17;3.40;;;;;3.90;97304.00;;;;8369869;28;20223;-69
2021/12/19 09:01:18;;;;;;;10.50;4.10;;;;;3.90;97294.00;;;;8375478;28;20227;-73
2021/12/19 09:05:25;;;;;;;8.23;3.10;;;;;4.00;97290.00;;;;8373368;28;20584;-70
2021/12/19 09:09:29;;;;;;;9.73;3.73;;;;;3.90;97289.00;;;;8376041;28;20310;-71
2021/12/19 09:13:37;;;;;;;10.60;3.73;;;;;4.00;97268.00;;;;8372304;28;20829;-74
2021/12/19 09:17:40;;;;;;;10.23;3.30;;;;;4.00;97276.00;;;;8377976;28;20239;-72
2021/12/19 09:21:44;;;;;;;9.67;3.90;;;;;4.00;97286.00;;;;8384353;28;20254;-69
2021/12/19 09:25:47;;;;;;;9.17;3.20;;;;;4.10;97276.00;;;;8367893;28;20282;-71
2021/12/19 09:29:52;;;;;;;9.97;3.43;;;;;4.10;97280.00;;;;8367570;28;20228;-70
2021/12/19 09:33:55;;;;;;;18.00;5.13;;;;;4.10;97287.00;;;;8370434;28;20238;-71
2021/12/19 09:38:01;;;;;;;12.10;3.70;;;;;4.10;97289.00;;;;8361870;28;20266;-71
2021/12/19 09:42:09;;;;;;;15.13;4.00;;;;;4.10;97267.00;;;;8367155;28;20227;-70
2021/12/19 09:46:18;;;;;;;10.63;3.50;;;;;4.10;97249.00;;;;8380623;28;20303;-70
2021/12/19 09:50:21;;;;;;;16.17;4.40;;;;;4.10;97253.00;;;;8381432;28;20273;-75
2021/12/19 09:54:25;;;;;;;13.57;4.30;;;;;4.10;97237.00;;;;8383774;28;21106;-71
2021/12/19 09:58:31;;;;;;;11.93;3.97;;;;;4.20;97239.00;;;;8373196;28;20684;-71
2021/12/19 10:02:36;;;;;;;13.67;4.23;;;;;4.20;97221.00;;;;8370902;28;20232;-72
2021/12/19 10:06:39;;;;;;;15.07;4.43;;;;;4.20;97202.00;;;;8374698;28;20271;-73
2021/12/19 10:10:47;;;;;;;12.10;4.33;;;;;4.20;97197.00;;;;8377025;28;20216;-73
2021/12/19 10:14:53;;;;;;;15.40;4.37;;;;;4.30;97191.00;;;;8364022;28;20311;-72
2021/12/19 10:19:01;;;;;;;14.30;4.57;;;;;4.30;97188.00;;;;8374165;28;20321;-71
2021/12/19 10:23:10;;;;;;;20.43;4.70;;;;;4.30;97171.00;;;;8380132;28;20227;-73
2021/12/19 10:27:31;;;;;;;19.87;5.00;;;;;4.20;97199.00;;;;8378549;28;20259;-71
2021/12/19 10:31:34;;;;;;;18.77;5.23;;;;;4.30;97193.00;;;;8374455;28;20253;-74
2021/12/19 10:35:41;;;;;;;18.77;5.37;;;;;4.30;97172.00;;;;8366260;28;20752;-72
2021/12/19 10:39:45;;;;;;;16.33;5.00;;;;;4.30;97169.00;;;;8381704;28;20339;-70
2021/12/19 10:43:58;;;;;;;20.63;4.70;;;;;4.30;97166.00;;;;8370217;28;20400;-73
2021/12/19 10:48:28;;;;;;;12.97;4.13;;;;;4.30;97143.00;;;;8376750;28;20216;-72
2021/12/19 10:52:36;;;;;;;17.23;4.97;;;;;4.30;97152.00;;;;8367798;28;20815;-74
2021/12/19 10:56:40;;;;;;;15.97;5.00;;;;;4.30;97120.00;;;;8372039;28;20618;-72
2021/12/19 11:01:03;;;;;;;17.17;5.23;;;;;4.30;97125.00;;;;8368690;28;20258;-70
2021/12/19 11:05:28;;;;;;;18.23;5.10;;;;;4.40;97123.00;;;;8368056;28;20277;-71
2021/12/19 11:09:37;;;;;;;19.40;5.10;;;;;4.50;97123.00;;;;8365564;28;20318;-73
2021/12/19 11:13:40;;;;;;;12.63;3.63;;;;;4.50;97109.00;;;;8377916;28;20219;-71
2021/12/19 11:17:43;;;;;;;17.00;5.00;;;;;4.50;97104.00;;;;8368245;28;20317;-70
2021/12/19 11:21:47;;;;;;;9.03;2.80;;;;;4.50;97093.00;;;;8376908;28;20623;-77
2021/12/19 11:25:51;;;;;;;9.47;3.70;;;;;4.50;97095.00;;;;8376937;28;20302;-70
2021/12/19 11:29:57;;;;;;;22.70;4.47;;;;;4.50;97097.00;;;;8376145;28;20242;-72
2021/12/19 11:34:22;;;;;;;20.87;5.93;;;;;4.60;97083.00;;;;8370316;28;20223;-70
2021/12/19 11:38:29;;;;;;;25.00;5.90;;;;;4.60;97069.00;;;;8384983;28;20243;-71
2021/12/19 11:42:36;;;;;;;20.77;5.40;;;;;4.60;97070.00;;;;8360751;28;20297;-71
2021/12/19 11:46:46;;;;;;;25.50;5.70;;;;;4.70;97053.00;;;;8364766;28;20223;-69
2021/12/19 11:50:54;;;;;;;24.03;5.30;;;;;4.80;97039.00;;;;8367580;28;20280;-70
2021/12/19 11:55:22;;;;;;;28.60;6.17;;;;;4.80;97034.00;;;;8364093;28;20231;-72
2021/12/19 11:59:26;;;;;;;25.90;5.97;;;;;4.80;97031.00;;;;8362583;28;20344;-72
2021/12/19 12:03:39;;;;;;;26.17;6.37;;;;;4.80;97038.00;;;;8377077;28;20274;-72
2021/12/19 12:08:12;;;;;;;24.80;5.80;;;;;4.80;97028.00;;;;8363710;28;20308;-72
2021/12/19 12:12:19;;;;;;;21.93;6.47;;;;;4.80;97008.00;;;;8394375;28;20220;-71
2021/12/19 12:16:41;;;;;;;27.30;5.37;;;;;4.70;97003.00;;;;8358230;28;20262;-72
2021/12/19 12:20:44;;;;;;;21.93;6.47;;;;;4.70;96992.00;;;;8375801;28;20239;-72
2021/12/19 12:25:06;;;;;;;17.20;4.90;;;;;4.70;96997.00;;;;8357881;28;20634;-72
2021/12/19 12:29:10;;;;;;;27.57;7.03;;;;;4.60;96983.00;;;;8371562;28;20223;-72
2021/12/19 12:33:20;;;;;;;35.60;7.13;;;;;4.70;96970.00;;;;8366263;28;20320;-72
2021/12/19 12:37:27;;;;;;;35.40;7.47;;;;;4.70;96960.00;;;;8367015;28;20301;-72
2021/12/19 12:41:50;;;;;;;26.60;7.50;;;;;4.70;96962.00;;;;8370231;28;20231;-72
2021/12/19 12:46:03;;;;;;;18.97;4.47;;;;;4.70;96954.00;;;;8358799;28;20236;-72
2021/12/19 12:50:08;;;;;;;23.70;5.87;;;;;4.70;96969.00;;;;8369792;28;20949;-69
2021/12/19 12:54:13;;;;;;;16.43;5.10;;;;;4.60;96946.00;;;;8370433;28;20311;-71
2021/12/19 12:58:17;;;;;;;27.10;6.33;;;;;4.50;96937.00;;;;8365651;28;20259;-71
2021/12/19 13:02:27;;;;;;;9.27;3.47;;;;;4.60;96933.00;;;;8358324;28;20716;-72
2021/12/19 13:06:44;;;;;;;9.93;3.83;;;;;4.50;96942.00;;;;8368049;28;20646;-69
2021/12/19 13:10:52;;;;;;;16.43;5.07;;;;;4.50;96945.00;;;;8367518;28;20279;-73
2021/12/19 13:14:58;;;;;;;23.83;6.40;;;;;4.40;96947.00;;;;8364310;28;20677;-73
2021/12/19 13:19:02;;;;;;;31.37;6.03;;;;;4.40;96942.00;;;;8379418;28;20248;-72
2021/12/19 13:23:08;;;;;;;24.77;5.83;;;;;4.40;96918.00;;;;8365228;28;20242;-72
2021/12/19 13:27:16;;;;;;;13.10;4.17;;;;;4.40;96912.00;;;;8372064;28;20239;-72
2021/12/19 13:31:23;;;;;;;29.90;5.83;;;;;4.40;96912.00;;;;8368034;28;20806;-70
2021/12/19 13:35:29;;;;;;;18.93;5.33;;;;;4.30;96911.00;;;;8362858;28;20248;-72
2021/12/19 13:39:34;;;;;;;19.20;5.90;;;;;4.30;96914.00;;;;8370570;28;20227;-72
2021/12/19 13:43:41;;;;;;;28.57;6.07;;;;;4.30;96910.00;;;;8362102;28;20236;-72
2021/12/19 13:47:44;;;;;;;33.60;7.33;;;;;4.30;96922.00;;;;8365518;28;20259;-72
2021/12/19 13:51:47;;;;;;;14.67;4.80;;;;;4.30;96901.00;;;;8368679;28;20215;-72
2021/12/19 13:55:54;;;;;;;27.50;6.20;;;;;4.30;96902.00;;;;8373747;28;20309;-71
2021/12/19 13:59:57;;;;;;;22.83;6.37;;;;;4.30;96901.00;;;;8365260;28;20231;-72
2021/12/19 14:04:04;;;;;;;31.80;6.53;;;;;4.40;96895.00;;;;8369461;28;20262;-71
2021/12/19 14:08:20;;;;;;;32.00;6.80;;;;;4.40;96900.00;;;;8383156;28;20289;-72
2021/12/19 14:12:28;;;;;;;36.63;6.83;;;;;4.40;96888.00;;;;8371676;28;20223;-72
2021/12/19 14:16:35;;;;;;;28.77;6.80;;;;;4.40;96887.00;;;;8385689;28;20228;-71
2021/12/19 14:20:38;;;;;;;30.13;7.17;;;;;4.40;96887.00;;;;8380134;28;20266;-71
2021/12/19 14:24:44;;;;;;;26.40;7.07;;;;;4.50;96893.00;;;;8384677;28;20682;-71
2021/12/19 14:28:50;;;;;;;43.17;7.77;;;;;4.50;96899.00;;;;8385461;28;20925;-72
2021/12/19 14:32:55;;;;;;;37.73;7.83;;;;;4.50;96895.00;;;;8381942;28;20243;-71
2021/12/19 14:37:14;;;;;;;34.83;7.83;;;;;4.40;96903.00;;;;8368240;28;20232;-71
2021/12/19 14:41:35;;;;;;;31.73;8.47;;;;;4.40;96906.00;;;;8373095;28;20251;-71
2021/12/19 14:45:45;;;;;;;32.50;7.90;;;;;4.40;96906.00;;;;8416719;28;20266;-71
2021/12/19 14:49:48;;;;;;;28.50;7.60;;;;;4.50;96905.00;;;;8366913;28;20238;-71
2021/12/19 14:53:59;;;;;;;42.40;8.20;;;;;4.50;96897.00;;;;8389759;28;20315;-71
2021/12/19 14:58:03;;;;;;;37.90;7.60;;;;;4.50;96898.00;;;;8372976;28;20221;-71
2021/12/19 15:02:10;;;;;;;33.47;7.03;;;;;4.50;96892.00;;;;8383770;28;20318;-71
2021/12/19 15:06:19;;;;;;;42.53;9.50;;;;;4.40;96895.00;;;;8385446;28;20593;-71
2021/12/19 15:10:23;;;;;;;49.97;10.00;;;;;4.50;96905.00;;;;8383680;28;20266;-71
2021/12/19 15:14:27;;;;;;;40.13;7.73;;;;;4.50;96892.00;;;;8390155;28;20640;-71
2021/12/19 15:18:32;;;;;;;52.47;10.30;;;;;4.50;96894.00;;;;8406252;28;20299;-71
2021/12/19 15:22:37;;;;;;;49.97;10.47;;;;;4.50;96885.00;;;;8384237;28;20285;-71
2021/12/19 15:26:41;;;;;;;43.53;8.83;;;;;4.50;96875.00;;;;8384842;28;20298;-71
2021/12/19 15:30:46;;;;;;;41.73;9.17;;;;;4.50;96880.00;;;;8382188;28;20264;-71
2021/12/19 15:34:50;;;;;;;51.20;11.13;;;;;4.50;96887.00;;;;8383444;28;20846;-72
2021/12/19 15:38:54;;;;;;;58.70;10.70;;;;;4.50;96887.00;;;;8373668;28;20248;-71
2021/12/19 15:42:58;;;;;;;54.23;11.20;;;;;4.50;96884.00;;;;8377066;28;20235;-71
2021/12/19 15:47:01;;;;;;;56.30;10.90;;;;;4.50;96882.00;;;;8365651;28;20323;-70
2021/12/19 15:51:06;;;;;;;55.53;10.60;;;;;4.50;96875.00;;;;8360819;28;20239;-71
2021/12/19 15:55:10;;;;;;;53.30;10.60;;;;;4.50;96882.00;;;;8369145;28;20226;-70
2021/12/19 15:59:13;;;;;;;66.63;13.70;;;;;4.50;96869.00;;;;8372248;28;20652;-69
2021/12/19 16:03:17;;;;;;;66.23;12.57;;;;;4.60;96870.00;;;;8368166;28;20309;-72
2021/12/19 16:07:22;;;;;;;78.20;13.27;;;;;4.60;96864.00;;;;8370575;28;20330;-73
2021/12/19 16:11:25;;;;;;;77.93;14.60;;;;;4.60;96858.00;;;;8367893;28;20325;-72
2021/12/19 16:15:28;;;;;;;90.93;14.40;;;;;4.60;96860.00;;;;8371160;28;20314;-70
2021/12/19 16:19:31;;;;;;;59.70;11.30;;;;;4.70;96845.00;;;;8366870;28;20319;-70
2021/12/19 16:23:36;;;;;;;72.20;13.33;;;;;4.70;96840.00;;;;8359237;28;20964;-70
2021/12/19 16:27:40;;;;;;;69.20;13.10;;;;;4.70;96827.00;;;;8371371;28;20303;-73
2021/12/19 16:31:44;;;;;;;87.37;14.60;;;;;4.70;96821.00;;;;8358665;28;20224;-70
2021/12/19 16:35:48;;;;;;;86.63;14.57;;;;;4.70;96827.00;;;;8371097;28;20613;-72
2021/12/19 16:39:54;;;;;;;88.20;15.57;;;;;4.70;96823.00;;;;8372067;28;20228;-72
2021/12/19 16:43:57;;;;;;;102.57;16.13;;;;;4.80;96829.00;;;;8384232;28;20640;-73
2021/12/19 16:48:00;;;;;;;96.97;15.60;;;;;4.80;96829.00;;;;8363484;28;20743;-74
2021/12/19 16:52:04;;;;;;;89.77;16.47;;;;;4.80;96817.00;;;;8377646;28;20262;-70
2021/12/19 16:56:09;;;;;;;105.33;17.40;;;;;4.80;96822.00;;;;8375025;28;20252;-70
2021/12/19 17:00:18;;;;;;;88.30;15.73;;;;;4.80;96829.00;;;;8386860;28;20235;-71
2021/12/19 17:04:21;;;;;;;94.07;17.17;;;;;4.90;96820.00;;;;8373919;28;20386;-70
2021/12/19 17:08:37;;;;;;;99.57;17.20;;;;;4.90;96817.00;;;;8378228;28;20235;-71
2021/12/19 17:12:46;;;;;;;96.93;17.10;;;;;4.90;96817.00;;;;8372742;28;20346;-72
2021/12/19 17:16:52;;;;;;;108.23;17.67;;;;;5.00;96829.00;;;;8379294;28;20276;-70
2021/12/19 17:20:57;;;;;;;106.90;17.93;;;;;5.00;96810.00;;;;8374936;28;20266;-72
2021/12/19 17:25:05;;;;;;;113.07;18.27;;;;;5.00;96808.00;;;;8387489;28;20232;-72
2021/12/19 17:29:11;;;;;;;86.30;15.80;;;;;5.10;96820.00;;;;8388093;28;20609;-70
2021/12/19 17:33:14;;;;;;;76.13;15.50;;;;;5.10;96808.00;;;;8386372;28;20313;-72
2021/12/19 17:37:18;;;;;;;105.77;18.23;;;;;5.10;96805.00;;;;8387064;28;20236;-70
2021/12/19 17:41:22;;;;;;;98.77;17.33;;;;;5.10;96802.00;;;;8371397;28;20334;-69
2021/12/19 17:45:27;;;;;;;85.20;15.60;;;;;5.10;96788.00;;;;8386113;28;20228;-71
2021/12/19 17:49:37;;;;;;;108.77;18.83;;;;;5.20;96798.00;;;;8386610;28;20220;-72
2021/12/19 17:53:41;;;;;;;92.90;17.17;;;;;5.20;96794.00;;;;8386060;28;20226;-70
2021/12/19 17:57:44;;;;;;;94.97;17.80;;;;;5.20;96797.00;;;;8365561;28;20692;-72
2021/12/19 18:01:48;;;;;;;98.40;18.13;;;;;5.30;96815.00;;;;8378134;28;20263;-71
2021/12/19 18:05:54;;;;;;;72.70;15.43;;;;;5.30;96800.00;;;;8386072;28;20327;-71
2021/12/19 18:09:58;;;;;;;102.73;18.17;;;;;5.30;96820.00;;;;8378809;28;20308;-71
2021/12/19 18:14:02;;;;;;;92.53;18.10;;;;;5.30;96818.00;;;;8373015;28;20238;-70
2021/12/19 18:18:07;;;;;;;97.50;18.63;;;;;5.40;96823.00;;;;8374955;28;20289;-71
2021/12/19 18:22:12;;;;;;;107.60;19.70;;;;;5.40;96826.00;;;;8376305;28;20259;-69
2021/12/19 18:26:15;;;;;;;110.73;21.60;;;;;5.50;96825.00;;;;8365124;28;20220;-73
2021/12/19 18:30:30;;;;;;;114.83;21.07;;;;;5.50;96841.00;;;;8374654;28;20227;-73
2021/12/19 18:34:39;;;;;;;104.60;19.90;;;;;5.50;96836.00;;;;8383419;28;20263;-73
2021/12/19 18:38:42;;;;;;;119.53;20.90;;;;;5.50;96835.00;;;;8374838;28;20787;-73
2021/12/19 18:42:53;;;;;;;108.87;21.20;;;;;5.50;96846.00;;;;8381960;28;20241;-72
2021/12/19 18:47:14;;;;;;;152.77;34.27;;;;;5.50;96833.00;;;;8380516;28;20630;-71
2021/12/19 18:51:39;;;;;;;539.90;216.53;;;;;5.60;96836.00;;;;8352294;28;20279;-73
2021/12/19 18:55:54;;;;;;;103.13;20.63;;;;;5.50;96838.00;;;;8368658;28;20334;-71
2021/12/19 19:00:01;;;;;;;105.47;20.67;;;;;5.60;96845.00;;;;8366139;28;20220;-73
2021/12/19 19:04:10;;;;;;;149.67;42.33;;;;;5.60;96839.00;;;;8371791;28;20323;-72
2021/12/19 19:08:17;;;;;;;109.53;23.80;;;;;5.60;96843.00;;;;8377230;28;20246;-73
2021/12/19 19:12:20;;;;;;;106.70;19.77;;;;;5.60;96845.00;;;;8373749;28;20259;-72
2021/12/19 19:16:23;;;;;;;105.53;20.17;;;;;5.60;96855.00;;;;8371352;28;20649;-72
2021/12/19 19:20:27;;;;;;;109.63;21.07;;;;;5.60;96857.00;;;;8371938;28;20788;-72
2021/12/19 19:24:32;;;;;;;109.00;18.60;;;;;5.70;96857.00;;;;8373736;28;20738;-72
2021/12/19 19:28:35;;;;;;;84.60;16.97;;;;;5.70;96846.00;;;;8369805;28;20335;-71
2021/12/19 19:32:39;;;;;;;113.97;19.93;;;;;5.70;96853.00;;;;8372221;28;20236;-72
2021/12/19 19:36:46;;;;;;;102.53;19.77;;;;;5.70;96855.00;;;;8369534;28;20243;-67
2021/12/19 19:40:57;;;;;;;111.77;23.23;;;;;5.70;96843.00;;;;8365708;28;20326;-73
2021/12/19 19:49:22;;;;;;;103.43;18.70;;;;;5.70;96851.00;;;;8371459;28;20222;-70
2021/12/19 19:53:25;;;;;;;96.87;20.90;;;;;5.70;96851.00;;;;8368815;28;20949;-73
2021/12/19 19:57:31;;;;;;;93.23;17.67;;;;;5.80;96848.00;;;;8367480;28;20680;-70
2021/12/19 20:01:35;;;;;;;96.33;17.13;;;;;5.70;96836.00;;;;8366113;28;20286;-72
2021/12/19 20:05:39;;;;;;;99.90;16.90;;;;;5.70;96843.00;;;;8366836;28;20239;-73
2021/12/19 20:09:42;;;;;;;85.47;16.53;;;;;5.50;96836.00;;;;8373153;28;20256;-74
2021/12/19 20:13:48;;;;;;;79.63;15.13;;;;;5.40;96835.00;;;;8367718;28;20869;-70
2021/12/19 20:17:51;;;;;;;79.07;14.90;;;;;5.30;96830.00;;;;8363356;28;20250;-69
2021/12/19 20:21:55;;;;;;;77.13;14.77;;;;;5.10;96837.00;;;;8371672;28;20227;-72
2021/12/19 20:25:59;;;;;;;78.30;14.67;;;;;5.00;96820.00;;;;8378558;28;20227;-71
2021/12/19 20:30:08;;;;;;;84.87;15.47;;;;;4.90;96822.00;;;;8379426;28;20315;-71
2021/12/19 20:34:12;;;;;;;76.87;14.07;;;;;4.80;96823.00;;;;8379124;28;20310;-71
2021/12/19 20:38:16;;;;;;;80.13;15.83;;;;;4.90;96818.00;;;;8376985;28;20280;-72
2021/12/19 20:42:20;;;;;;;76.67;14.77;;;;;4.90;96829.00;;;;8380809;28;20283;-70
2021/12/19 20:46:26;;;;;;;81.67;15.10;;;;;4.90;96832.00;;;;8380472;28;20722;-72
2021/12/19 20:50:30;;;;;;;74.30;13.00;;;;;4.90;96821.00;;;;8377299;28;20691;-73
2021/12/19 20:54:33;;;;;;;68.37;14.33;;;;;5.00;96817.00;;;;8373859;28;20232;-72
2021/12/19 20:58:36;;;;;;;74.80;13.93;;;;;5.00;96823.00;;;;8381946;28;20240;-72
2021/12/19 21:02:42;;;;;;;77.80;12.63;;;;;5.10;96829.00;;;;8385749;28;20324;-74
2021/12/19 21:06:46;;;;;;;83.47;14.97;;;;;5.10;96833.00;;;;8386672;28;20270;-72
2021/12/19 21:10:49;;;;;;;82.77;15.30;;;;;5.20;96828.00;;;;8381095;28;20239;-70
2021/12/19 21:15:22;;;;;;;82.37;16.93;;;;;5.20;96835.00;;;;8370272;28;20657;-71
2021/12/19 21:19:25;;;;;;;82.17;13.60;;;;;5.20;96818.00;;;;8366431;28;20258;-71
2021/12/19 21:23:29;;;;;;;77.77;14.10;;;;;5.30;96828.00;;;;8381647;28;20777;-69
2021/12/19 21:27:32;;;;;;;66.60;13.37;;;;;5.30;96824.00;;;;8376296;28;20230;-71
2021/12/19 21:31:37;;;;;;;67.43;13.13;;;;;5.40;96824.00;;;;8381962;28;20259;-71